sensor_id;sensor_type;location;lat;lon;timestamp;P1;durP1;ratioP1;P2;durP2;ratioP2
33279;SDS011;20403;43.114;12.434;2023-05-02T00:02:16;2.97;;;0.43;;
33279;SDS011;20403;43.114;12.434;2023-05-02T00:04:42;1.45;;;0.40;;
33279;SDS011;20403;43.114;12.434;2023-05-02T00:07:07;1.48;;;0.20;;
33279;SDS011;20403;43.114;12.434;2023-05-02T00:09:33;0.20;;;0.20;;
33279;SDS011;20403;43.114;12.434;2023-05-02T00:11:58;4.95;;;0.32;;
33279;SDS011;20403;43.114;12.434;2023-05-02T00:14:24;2.75;;;0.30;;
33279;SDS011;20403;43.114;12.434;2023-05-02T00:16:49;0.20;;;0.20;;
33279;SDS011;20403;43.114;12.434;2023-05-02T00:19:15;0.98;;;0.20;;
33279;SDS011;20403;43.114;12.434;2023-05-02T00:21:40;3.60;;;0.52;;
33279;SDS011;20403;43.114;12.434;2023-05-02T00:24:06;1.27;;;0.52;;
33279;SDS011;20403;43.114;12.434;2023-05-02T00:26:31;4.78;;;0.50;;
33279;SDS011;20403;43.114;12.434;2023-05-02T00:28:57;0.60;;;0.30;;
33279;SDS011;20403;43.114;12.434;2023-05-02T00:31:23;1.30;;;0.40;;
33279;SDS011;20403;43.114;12.434;2023-05-02T00:33:48;1.52;;;0.45;;
33279;SDS011;20403;43.114;12.434;2023-05-02T00:36:14;2.28;;;0.30;;
33279;SDS011;20403;43.114;12.434;2023-05-02T00:38:40;3.63;;;0.95;;
33279;SDS011;20403;43.114;12.434;2023-05-02T00:41:05;0.70;;;0.47;;
33279;SDS011;20403;43.114;12.434;2023-05-02T00:43:31;1.70;;;0.50;;
33279;SDS011;20403;43.114;12.434;2023-05-02T00:45:56;2.85;;;0.30;;
33279;SDS011;20403;43.114;12.434;2023-05-02T00:48:23;0.93;;;0.40;;
33279;SDS011;20403;43.114;12.434;2023-05-02T00:50:49;1.63;;;0.50;;
33279;SDS011;20403;43.114;12.434;2023-05-02T00:53:15;4.22;;;0.30;;
33279;SDS011;20403;43.114;12.434;2023-05-02T00:55:41;0.55;;;0.28;;
33279;SDS011;20403;43.114;12.434;2023-05-02T00:58:10;0.55;;;0.30;;
33279;SDS011;20403;43.114;12.434;2023-05-02T01:00:55;1.20;;;0.53;;
33279;SDS011;20403;43.114;12.434;2023-05-02T01:06:52;1.33;;;0.40;;
33279;SDS011;20403;43.114;12.434;2023-05-02T01:14:32;0.95;;;0.50;;
33279;SDS011;20403;43.114;12.434;2023-05-02T01:17:03;3.20;;;0.45;;
33279;SDS011;20403;43.114;12.434;2023-05-02T01:19:33;3.20;;;0.60;;
33279;SDS011;20403;43.114;12.434;2023-05-02T01:22:04;4.38;;;0.55;;
33279;SDS011;20403;43.114;12.434;2023-05-02T01:27:48;1.65;;;0.30;;
33279;SDS011;20403;43.114;12.434;2023-05-02T01:30:16;1.30;;;0.50;;
33279;SDS011;20403;43.114;12.434;2023-05-02T01:32:45;1.70;;;0.38;;
33279;SDS011;20403;43.114;12.434;2023-05-02T01:35:13;0.43;;;0.40;;
33279;SDS011;20403;43.114;12.434;2023-05-02T01:37:42;4.65;;;0.50;;
33279;SDS011;20403;43.114;12.434;2023-05-02T01:42:41;0.30;;;0.22;;
33279;SDS011;20403;43.114;12.434;2023-05-02T01:45:10;4.57;;;0.40;;
33279;SDS011;20403;43.114;12.434;2023-05-02T01:47:36;0.65;;;0.40;;
33279;SDS011;20403;43.114;12.434;2023-05-02T01:50:04;2.85;;;0.40;;
33279;SDS011;20403;43.114;12.434;2023-05-02T01:52:33;2.00;;;0.57;;
33279;SDS011;20403;43.114;12.434;2023-05-02T01:55:00;1.80;;;0.50;;
33279;SDS011;20403;43.114;12.434;2023-05-02T01:57:26;3.13;;;0.38;;
33279;SDS011;20403;43.114;12.434;2023-05-02T01:59:53;0.40;;;0.30;;
33279;SDS011;20403;43.114;12.434;2023-05-02T02:02:25;0.80;;;0.32;;
33279;SDS011;20403;43.114;12.434;2023-05-02T02:04:53;2.67;;;0.60;;
33279;SDS011;20403;43.114;12.434;2023-05-02T02:07:20;0.57;;;0.38;;
33279;SDS011;20403;43.114;12.434;2023-05-02T02:09:47;3.05;;;0.50;;
33279;SDS011;20403;43.114;12.434;2023-05-02T02:15:37;0.30;;;0.20;;
33279;SDS011;20403;43.114;12.434;2023-05-02T02:17:42;2.83;;;0.40;;
33279;SDS011;20403;43.114;12.434;2023-05-02T02:20:12;1.67;;;0.40;;
33279;SDS011;20403;43.114;12.434;2023-05-02T02:22:40;1.50;;;0.50;;
33279;SDS011;20403;43.114;12.434;2023-05-02T02:25:09;6.93;;;0.55;;
33279;SDS011;20403;43.114;12.434;2023-05-02T02:27:36;3.70;;;0.52;;
33279;SDS011;20403;43.114;12.434;2023-05-02T02:30:03;0.82;;;0.43;;
33279;SDS011;20403;43.114;12.434;2023-05-02T02:32:29;0.47;;;0.40;;
33279;SDS011;20403;43.114;12.434;2023-05-02T02:34:54;0.80;;;0.50;;
33279;SDS011;20403;43.114;12.434;2023-05-02T02:37:25;0.82;;;0.55;;
33279;SDS011;20403;43.114;12.434;2023-05-02T02:48:27;3.95;;;0.55;;
33279;SDS011;20403;43.114;12.434;2023-05-02T02:51:43;0.55;;;0.40;;
33279;SDS011;20403;43.114;12.434;2023-05-02T02:54:21;5.70;;;0.63;;
33279;SDS011;20403;43.114;12.434;2023-05-02T02:57:00;2.17;;;0.50;;
33279;SDS011;20403;43.114;12.434;2023-05-02T03:02:02;0.85;;;0.40;;
33279;SDS011;20403;43.114;12.434;2023-05-02T03:04:31;1.08;;;0.50;;
33279;SDS011;20403;43.114;12.434;2023-05-02T03:06:59;1.40;;;0.47;;
33279;SDS011;20403;43.114;12.434;2023-05-02T03:09:25;2.33;;;0.40;;
33279;SDS011;20403;43.114;12.434;2023-05-02T03:11:54;6.05;;;0.77;;
33279;SDS011;20403;43.114;12.434;2023-05-02T03:14:20;3.75;;;0.50;;
33279;SDS011;20403;43.114;12.434;2023-05-02T03:16:46;0.75;;;0.50;;
33279;SDS011;20403;43.114;12.434;2023-05-02T03:19:11;3.33;;;0.60;;
33279;SDS011;20403;43.114;12.434;2023-05-02T03:21:37;0.95;;;0.40;;
33279;SDS011;20403;43.114;12.434;2023-05-02T03:24:03;3.03;;;0.40;;
33279;SDS011;20403;43.114;12.434;2023-05-02T03:26:29;2.70;;;0.47;;
33279;SDS011;20403;43.114;12.434;2023-05-02T03:28:54;1.70;;;0.40;;
33279;SDS011;20403;43.114;12.434;2023-05-02T03:31:21;2.30;;;0.60;;
33279;SDS011;20403;43.114;12.434;2023-05-02T03:33:47;4.93;;;0.35;;
33279;SDS011;20403;43.114;12.434;2023-05-02T03:36:13;6.45;;;0.60;;
33279;SDS011;20403;43.114;12.434;2023-05-02T03:38:39;1.13;;;0.50;;
33279;SDS011;20403;43.114;12.434;2023-05-02T03:41:04;5.15;;;0.65;;
33279;SDS011;20403;43.114;12.434;2023-05-02T03:43:30;0.60;;;0.50;;
33279;SDS011;20403;43.114;12.434;2023-05-02T03:45:56;1.55;;;0.40;;
33279;SDS011;20403;43.114;12.434;2023-05-02T03:48:22;0.95;;;0.43;;
33279;SDS011;20403;43.114;12.434;2023-05-02T03:50:48;5.68;;;0.55;;
33279;SDS011;20403;43.114;12.434;2023-05-02T03:53:14;4.03;;;0.30;;
33279;SDS011;20403;43.114;12.434;2023-05-02T03:55:43;0.50;;;0.30;;
33279;SDS011;20403;43.114;12.434;2023-05-02T03:58:09;1.05;;;0.30;;
33279;SDS011;20403;43.114;12.434;2023-05-02T04:00:35;1.95;;;0.30;;
33279;SDS011;20403;43.114;12.434;2023-05-02T04:03:00;1.27;;;0.25;;
33279;SDS011;20403;43.114;12.434;2023-05-02T04:05:26;4.65;;;0.90;;
33279;SDS011;20403;43.114;12.434;2023-05-02T04:07:52;4.53;;;0.30;;
33279;SDS011;20403;43.114;12.434;2023-05-02T04:10:18;2.70;;;0.40;;
33279;SDS011;20403;43.114;12.434;2023-05-02T04:12:43;0.47;;;0.30;;
33279;SDS011;20403;43.114;12.434;2023-05-02T04:15:09;1.45;;;0.40;;
33279;SDS011;20403;43.114;12.434;2023-05-02T04:17:35;0.90;;;0.55;;
33279;SDS011;20403;43.114;12.434;2023-05-02T04:20:01;0.20;;;0.15;;
33279;SDS011;20403;43.114;12.434;2023-05-02T04:22:27;0.60;;;0.50;;
33279;SDS011;20403;43.114;12.434;2023-05-02T04:24:52;2.72;;;0.52;;
33279;SDS011;20403;43.114;12.434;2023-05-02T04:27:18;2.38;;;0.40;;
33279;SDS011;20403;43.114;12.434;2023-05-02T04:29:46;3.42;;;0.60;;
33279;SDS011;20403;43.114;12.434;2023-05-02T04:32:12;1.00;;;0.50;;
33279;SDS011;20403;43.114;12.434;2023-05-02T04:34:38;3.72;;;0.57;;
33279;SDS011;20403;43.114;12.434;2023-05-02T04:37:03;2.25;;;0.40;;
33279;SDS011;20403;43.114;12.434;2023-05-02T04:39:29;1.63;;;0.40;;
33279;SDS011;20403;43.114;12.434;2023-05-02T04:41:54;0.80;;;0.50;;
33279;SDS011;20403;43.114;12.434;2023-05-02T04:44:19;2.00;;;0.50;;
33279;SDS011;20403;43.114;12.434;2023-05-02T04:46:45;3.55;;;0.70;;
33279;SDS011;20403;43.114;12.434;2023-05-02T04:49:10;1.40;;;0.60;;
33279;SDS011;20403;43.114;12.434;2023-05-02T04:51:36;1.15;;;0.50;;
33279;SDS011;20403;43.114;12.434;2023-05-02T04:54:01;1.83;;;0.52;;
33279;SDS011;20403;43.114;12.434;2023-05-02T04:56:27;2.08;;;0.80;;
33279;SDS011;20403;43.114;12.434;2023-05-02T04:58:52;6.60;;;0.60;;
33279;SDS011;20403;43.114;12.434;2023-05-02T05:01:18;3.67;;;0.68;;
33279;SDS011;20403;43.114;12.434;2023-05-02T05:03:43;2.90;;;0.60;;
33279;SDS011;20403;43.114;12.434;2023-05-02T05:06:08;4.10;;;0.80;;
33279;SDS011;20403;43.114;12.434;2023-05-02T05:08:34;1.80;;;0.95;;
33279;SDS011;20403;43.114;12.434;2023-05-02T05:10:59;3.08;;;0.73;;
33279;SDS011;20403;43.114;12.434;2023-05-02T05:13:25;1.42;;;0.75;;
33279;SDS011;20403;43.114;12.434;2023-05-02T05:15:52;6.72;;;0.50;;
33279;SDS011;20403;43.114;12.434;2023-05-02T05:18:18;4.60;;;0.70;;
33279;SDS011;20403;43.114;12.434;2023-05-02T05:20:43;7.60;;;1.48;;
33279;SDS011;20403;43.114;12.434;2023-05-02T05:23:09;1.30;;;0.80;;
33279;SDS011;20403;43.114;12.434;2023-05-02T05:25:34;3.53;;;1.00;;
33279;SDS011;20403;43.114;12.434;2023-05-02T05:28:00;6.15;;;1.00;;
33279;SDS011;20403;43.114;12.434;2023-05-02T05:30:25;10.70;;;2.50;;
33279;SDS011;20403;43.114;12.434;2023-05-02T05:32:51;4.47;;;1.30;;
33279;SDS011;20403;43.114;12.434;2023-05-02T05:35:17;3.67;;;0.90;;
33279;SDS011;20403;43.114;12.434;2023-05-02T05:37:42;2.92;;;1.00;;
33279;SDS011;20403;43.114;12.434;2023-05-02T05:40:08;1.90;;;0.98;;
33279;SDS011;20403;43.114;12.434;2023-05-02T05:42:34;3.97;;;1.15;;
33279;SDS011;20403;43.114;12.434;2023-05-02T05:45:00;3.30;;;1.00;;
33279;SDS011;20403;43.114;12.434;2023-05-02T05:47:25;1.40;;;0.90;;
33279;SDS011;20403;43.114;12.434;2023-05-02T05:49:54;3.50;;;0.90;;
33279;SDS011;20403;43.114;12.434;2023-05-02T05:52:19;3.90;;;1.10;;
33279;SDS011;20403;43.114;12.434;2023-05-02T05:54:45;4.63;;;1.10;;
33279;SDS011;20403;43.114;12.434;2023-05-02T05:57:11;2.63;;;1.10;;
33279;SDS011;20403;43.114;12.434;2023-05-02T05:59:36;5.95;;;1.20;;
33279;SDS011;20403;43.114;12.434;2023-05-02T06:02:01;3.53;;;1.15;;
33279;SDS011;20403;43.114;12.434;2023-05-02T06:04:28;2.83;;;1.05;;
33279;SDS011;20403;43.114;12.434;2023-05-02T06:06:53;2.03;;;1.10;;
33279;SDS011;20403;43.114;12.434;2023-05-02T06:09:19;6.85;;;1.17;;
33279;SDS011;20403;43.114;12.434;2023-05-02T06:11:45;3.40;;;1.10;;
33279;SDS011;20403;43.114;12.434;2023-05-02T06:14:10;0.85;;;0.68;;
33279;SDS011;20403;43.114;12.434;2023-05-02T06:16:36;3.83;;;0.88;;
33279;SDS011;20403;43.114;12.434;2023-05-02T06:19:01;4.18;;;1.58;;
33279;SDS011;20403;43.114;12.434;2023-05-02T06:21:27;10.82;;;1.17;;
33279;SDS011;20403;43.114;12.434;2023-05-02T06:23:52;6.95;;;1.25;;
33279;SDS011;20403;43.114;12.434;2023-05-02T06:26:18;1.35;;;1.02;;
33279;SDS011;20403;43.114;12.434;2023-05-02T06:28:43;4.55;;;1.05;;
33279;SDS011;20403;43.114;12.434;2023-05-02T06:31:09;2.80;;;0.95;;
33279;SDS011;20403;43.114;12.434;2023-05-02T06:33:34;1.73;;;0.90;;
33279;SDS011;20403;43.114;12.434;2023-05-02T06:36:00;4.00;;;0.88;;
33279;SDS011;20403;43.114;12.434;2023-05-02T06:38:26;13.82;;;1.50;;
33279;SDS011;20403;43.114;12.434;2023-05-02T06:40:52;6.18;;;1.20;;
33279;SDS011;20403;43.114;12.434;2023-05-02T06:43:17;2.25;;;1.00;;
33279;SDS011;20403;43.114;12.434;2023-05-02T06:45:43;3.63;;;1.10;;
33279;SDS011;20403;43.114;12.434;2023-05-02T06:48:09;2.35;;;0.93;;
33279;SDS011;20403;43.114;12.434;2023-05-02T06:50:35;0.93;;;0.90;;
33279;SDS011;20403;43.114;12.434;2023-05-02T06:53:01;5.78;;;1.20;;
33279;SDS011;20403;43.114;12.434;2023-05-02T06:55:28;6.05;;;1.42;;
33279;SDS011;20403;43.114;12.434;2023-05-02T06:57:54;4.05;;;1.60;;
33279;SDS011;20403;43.114;12.434;2023-05-02T07:00:19;4.97;;;1.98;;
33279;SDS011;20403;43.114;12.434;2023-05-02T07:02:46;13.98;;;2.92;;
33279;SDS011;20403;43.114;12.434;2023-05-02T07:05:13;10.43;;;2.00;;
33279;SDS011;20403;43.114;12.434;2023-05-02T07:07:43;4.90;;;2.08;;
33279;SDS011;20403;43.114;12.434;2023-05-02T07:10:09;5.85;;;1.40;;
33279;SDS011;20403;43.114;12.434;2023-05-02T07:12:35;5.65;;;1.70;;
33279;SDS011;20403;43.114;12.434;2023-05-02T07:15:01;4.80;;;1.77;;
33279;SDS011;20403;43.114;12.434;2023-05-02T07:17:26;6.28;;;1.70;;
33279;SDS011;20403;43.114;12.434;2023-05-02T07:19:52;4.88;;;1.83;;
33279;SDS011;20403;43.114;12.434;2023-05-02T07:22:18;2.78;;;1.20;;
33279;SDS011;20403;43.114;12.434;2023-05-02T07:24:43;3.45;;;1.13;;
33279;SDS011;20403;43.114;12.434;2023-05-02T07:27:09;4.30;;;0.60;;
33279;SDS011;20403;43.114;12.434;2023-05-02T07:29:35;3.67;;;0.88;;
33279;SDS011;20403;43.114;12.434;2023-05-02T07:32:01;2.70;;;1.17;;
33279;SDS011;20403;43.114;12.434;2023-05-02T07:34:27;3.75;;;0.73;;
33279;SDS011;20403;43.114;12.434;2023-05-02T07:36:53;5.95;;;0.77;;
33279;SDS011;20403;43.114;12.434;2023-05-02T07:39:18;5.03;;;0.80;;
33279;SDS011;20403;43.114;12.434;2023-05-02T07:41:44;2.92;;;0.77;;
33279;SDS011;20403;43.114;12.434;2023-05-02T07:44:10;0.50;;;0.50;;
33279;SDS011;20403;43.114;12.434;2023-05-02T07:46:35;1.85;;;0.43;;
33279;SDS011;20403;43.114;12.434;2023-05-02T07:49:01;3.95;;;0.40;;
33279;SDS011;20403;43.114;12.434;2023-05-02T07:51:26;0.98;;;0.50;;
33279;SDS011;20403;43.114;12.434;2023-05-02T07:53:52;0.60;;;0.50;;
33279;SDS011;20403;43.114;12.434;2023-05-02T07:56:19;9.57;;;1.00;;
33279;SDS011;20403;43.114;12.434;2023-05-02T07:58:45;1.75;;;0.47;;
33279;SDS011;20403;43.114;12.434;2023-05-02T08:01:10;4.97;;;0.82;;
33279;SDS011;20403;43.114;12.434;2023-05-02T08:03:36;0.05;;;0.05;;
33279;SDS011;20403;43.114;12.434;2023-05-02T08:06:01;2.42;;;0.50;;
33279;SDS011;20403;43.114;12.434;2023-05-02T08:08:27;2.08;;;0.40;;
33279;SDS011;20403;43.114;12.434;2023-05-02T08:10:53;0.57;;;0.38;;
33279;SDS011;20403;43.114;12.434;2023-05-02T08:13:18;1.95;;;0.43;;
33279;SDS011;20403;43.114;12.434;2023-05-02T08:15:44;4.00;;;0.60;;
33279;SDS011;20403;43.114;12.434;2023-05-02T08:18:10;3.15;;;0.43;;
33279;SDS011;20403;43.114;12.434;2023-05-02T08:20:35;3.45;;;0.30;;
33279;SDS011;20403;43.114;12.434;2023-05-02T08:23:01;0.43;;;0.30;;
33279;SDS011;20403;43.114;12.434;2023-05-02T08:25:26;2.17;;;0.52;;
33279;SDS011;20403;43.114;12.434;2023-05-02T08:27:51;0.50;;;0.40;;
33279;SDS011;20403;43.114;12.434;2023-05-02T08:30:17;3.78;;;0.30;;
33279;SDS011;20403;43.114;12.434;2023-05-02T08:32:42;3.67;;;0.60;;
33279;SDS011;20403;43.114;12.434;2023-05-02T08:35:09;4.03;;;0.52;;
33279;SDS011;20403;43.114;12.434;2023-05-02T08:37:34;1.10;;;0.40;;
33279;SDS011;20403;43.114;12.434;2023-05-02T08:40:00;3.28;;;0.47;;
33279;SDS011;20403;43.114;12.434;2023-05-02T08:42:26;1.75;;;0.30;;
33279;SDS011;20403;43.114;12.434;2023-05-02T08:44:56;2.63;;;0.40;;
33279;SDS011;20403;43.114;12.434;2023-05-02T08:47:22;1.08;;;0.30;;
33279;SDS011;20403;43.114;12.434;2023-05-02T08:49:49;1.17;;;0.20;;
33279;SDS011;20403;43.114;12.434;2023-05-02T08:52:17;1.05;;;0.30;;
33279;SDS011;20403;43.114;12.434;2023-05-02T08:54:44;0.50;;;0.28;;
33279;SDS011;20403;43.114;12.434;2023-05-02T08:57:10;1.20;;;0.17;;
33279;SDS011;20403;43.114;12.434;2023-05-02T08:59:36;0.75;;;0.30;;
33279;SDS011;20403;43.114;12.434;2023-05-02T09:02:04;1.00;;;0.20;;
33279;SDS011;20403;43.114;12.434;2023-05-02T09:04:42;0.50;;;0.28;;
33279;SDS011;20403;43.114;12.434;2023-05-02T09:07:09;0.40;;;0.30;;
33279;SDS011;20403;43.114;12.434;2023-05-02T09:09:34;0.30;;;0.10;;
33279;SDS011;20403;43.114;12.434;2023-05-02T09:12:01;1.40;;;0.70;;
33279;SDS011;20403;43.114;12.434;2023-05-02T09:14:27;5.57;;;2.97;;
33279;SDS011;20403;43.114;12.434;2023-05-02T09:16:57;3.63;;;1.90;;
33279;SDS011;20403;43.114;12.434;2023-05-02T09:19:26;5.85;;;1.80;;
33279;SDS011;20403;43.114;12.434;2023-05-02T09:21:52;2.95;;;1.70;;
33279;SDS011;20403;43.114;12.434;2023-05-02T09:24:24;5.18;;;2.00;;
33279;SDS011;20403;43.114;12.434;2023-05-02T09:27:00;0.60;;;0.30;;
33279;SDS011;20403;43.114;12.434;2023-05-02T09:29:27;1.00;;;0.50;;
33279;SDS011;20403;43.114;12.434;2023-05-02T09:31:59;1.40;;;0.80;;
33279;SDS011;20403;43.114;12.434;2023-05-02T09:34:25;2.47;;;0.88;;
33279;SDS011;20403;43.114;12.434;2023-05-02T09:36:50;2.17;;;0.93;;
33279;SDS011;20403;43.114;12.434;2023-05-02T09:39:22;0.30;;;0.30;;
33279;SDS011;20403;43.114;12.434;2023-05-02T09:44:16;3.45;;;2.22;;
33279;SDS011;20403;43.114;12.434;2023-05-02T09:46:46;3.97;;;1.90;;
33279;SDS011;20403;43.114;12.434;2023-05-02T09:49:13;3.13;;;1.75;;
33279;SDS011;20403;43.114;12.434;2023-05-02T09:51:39;2.00;;;1.30;;
33279;SDS011;20403;43.114;12.434;2023-05-02T09:54:05;1.35;;;0.93;;
33279;SDS011;20403;43.114;12.434;2023-05-02T09:56:30;1.08;;;0.70;;
33279;SDS011;20403;43.114;12.434;2023-05-02T09:59:15;1.58;;;0.60;;
33279;SDS011;20403;43.114;12.434;2023-05-02T10:01:41;1.95;;;0.60;;
33279;SDS011;20403;43.114;12.434;2023-05-02T10:04:11;1.13;;;0.77;;
33279;SDS011;20403;43.114;12.434;2023-05-02T10:06:44;2.83;;;0.40;;
33279;SDS011;20403;43.114;12.434;2023-05-02T10:09:11;2.20;;;0.80;;
33279;SDS011;20403;43.114;12.434;2023-05-02T10:11:39;1.30;;;0.60;;
33279;SDS011;20403;43.114;12.434;2023-05-02T10:14:09;1.73;;;0.90;;
33279;SDS011;20403;43.114;12.434;2023-05-02T10:16:59;1.60;;;0.90;;
33279;SDS011;20403;43.114;12.434;2023-05-02T10:22:20;2.70;;;1.30;;
33279;SDS011;20403;43.114;12.434;2023-05-02T10:24:47;2.65;;;1.40;;
33279;SDS011;20403;43.114;12.434;2023-05-02T10:27:13;3.20;;;1.30;;
33279;SDS011;20403;43.114;12.434;2023-05-02T10:29:39;3.97;;;1.30;;
33279;SDS011;20403;43.114;12.434;2023-05-02T10:32:06;2.40;;;1.30;;
33279;SDS011;20403;43.114;12.434;2023-05-02T10:34:32;4.95;;;1.77;;
33279;SDS011;20403;43.114;12.434;2023-05-02T10:36:58;4.07;;;0.98;;
33279;SDS011;20403;43.114;12.434;2023-05-02T10:39:26;2.17;;;1.33;;
33279;SDS011;20403;43.114;12.434;2023-05-02T10:41:53;2.30;;;1.13;;
33279;SDS011;20403;43.114;12.434;2023-05-02T10:49:53;3.70;;;1.70;;
33279;SDS011;20403;43.114;12.434;2023-05-02T10:57:58;4.68;;;1.40;;
33279;SDS011;20403;43.114;12.434;2023-05-02T11:00:29;2.58;;;1.25;;
33279;SDS011;20403;43.114;12.434;2023-05-02T11:02:58;0.95;;;0.70;;
33279;SDS011;20403;43.114;12.434;2023-05-02T11:05:25;2.22;;;0.70;;
33279;SDS011;20403;43.114;12.434;2023-05-02T11:10:41;6.28;;;0.68;;
33279;SDS011;20403;43.114;12.434;2023-05-02T11:13:07;2.25;;;0.70;;
33279;SDS011;20403;43.114;12.434;2023-05-02T11:17:59;2.38;;;1.00;;
33279;SDS011;20403;43.114;12.434;2023-05-02T11:20:41;1.50;;;0.80;;
33279;SDS011;20403;43.114;12.434;2023-05-02T11:25:49;0.98;;;0.50;;
33279;SDS011;20403;43.114;12.434;2023-05-02T11:31:04;0.95;;;0.70;;
33279;SDS011;20403;43.114;12.434;2023-05-02T11:33:31;1.92;;;0.90;;
33279;SDS011;20403;43.114;12.434;2023-05-02T11:35:57;1.88;;;0.90;;
33279;SDS011;20403;43.114;12.434;2023-05-02T11:38:23;2.53;;;0.80;;
33279;SDS011;20403;43.114;12.434;2023-05-02T11:40:56;2.30;;;0.70;;
33279;SDS011;20403;43.114;12.434;2023-05-02T11:43:24;5.80;;;1.17;;
33279;SDS011;20403;43.114;12.434;2023-05-02T11:45:51;0.88;;;0.70;;
33279;SDS011;20403;43.114;12.434;2023-05-02T11:48:18;1.65;;;0.70;;
33279;SDS011;20403;43.114;12.434;2023-05-02T11:50:50;1.00;;;0.70;;
33279;SDS011;20403;43.114;12.434;2023-05-02T11:53:17;1.75;;;0.70;;
33279;SDS011;20403;43.114;12.434;2023-05-02T11:55:53;2.78;;;0.75;;
33279;SDS011;20403;43.114;12.434;2023-05-02T11:58:26;8.23;;;0.82;;
33279;SDS011;20403;43.114;12.434;2023-05-02T12:00:56;1.23;;;0.52;;
33279;SDS011;20403;43.114;12.434;2023-05-02T12:03:26;3.00;;;1.00;;
33279;SDS011;20403;43.114;12.434;2023-05-02T12:06:06;1.45;;;0.70;;
33279;SDS011;20403;43.114;12.434;2023-05-02T12:08:36;1.85;;;0.50;;
33279;SDS011;20403;43.114;12.434;2023-05-02T12:11:02;2.97;;;0.68;;
33279;SDS011;20403;43.114;12.434;2023-05-02T12:13:27;0.75;;;0.60;;
33279;SDS011;20403;43.114;12.434;2023-05-02T12:15:54;1.88;;;0.50;;
33279;SDS011;20403;43.114;12.434;2023-05-02T12:18:21;1.23;;;0.82;;
33279;SDS011;20403;43.114;12.434;2023-05-02T12:20:48;2.08;;;0.68;;
33279;SDS011;20403;43.114;12.434;2023-05-02T12:23:21;0.80;;;0.60;;
33279;SDS011;20403;43.114;12.434;2023-05-02T12:25:48;2.33;;;0.90;;
33279;SDS011;20403;43.114;12.434;2023-05-02T12:28:17;0.90;;;0.45;;
33279;SDS011;20403;43.114;12.434;2023-05-02T12:30:45;4.82;;;0.47;;
33279;SDS011;20403;43.114;12.434;2023-05-02T12:33:12;2.65;;;0.52;;
33279;SDS011;20403;43.114;12.434;2023-05-02T12:35:37;2.38;;;0.40;;
33279;SDS011;20403;43.114;12.434;2023-05-02T12:38:07;1.30;;;0.50;;
33279;SDS011;20403;43.114;12.434;2023-05-02T12:40:47;4.78;;;0.43;;
33279;SDS011;20403;43.114;12.434;2023-05-02T12:43:14;0.95;;;0.40;;
33279;SDS011;20403;43.114;12.434;2023-05-02T12:45:40;1.25;;;0.50;;
33279;SDS011;20403;43.114;12.434;2023-05-02T12:48:24;2.17;;;0.65;;
33279;SDS011;20403;43.114;12.434;2023-05-02T12:50:52;5.03;;;0.60;;
33279;SDS011;20403;43.114;12.434;2023-05-02T12:53:37;1.48;;;0.55;;
33279;SDS011;20403;43.114;12.434;2023-05-02T12:56:07;1.27;;;0.30;;
33279;SDS011;20403;43.114;12.434;2023-05-02T12:58:44;1.58;;;0.40;;
33279;SDS011;20403;43.114;12.434;2023-05-02T13:01:11;5.15;;;0.50;;
33279;SDS011;20403;43.114;12.434;2023-05-02T13:03:38;1.98;;;0.40;;
33279;SDS011;20403;43.114;12.434;2023-05-02T13:06:04;2.47;;;0.40;;
33279;SDS011;20403;43.114;12.434;2023-05-02T13:08:30;1.63;;;0.38;;
33279;SDS011;20403;43.114;12.434;2023-05-02T13:10:57;0.77;;;0.30;;
33279;SDS011;20403;43.114;12.434;2023-05-02T13:13:23;3.67;;;0.40;;
33279;SDS011;20403;43.114;12.434;2023-05-02T13:15:48;3.08;;;0.65;;
33279;SDS011;20403;43.114;12.434;2023-05-02T13:18:14;2.45;;;0.28;;
33279;SDS011;20403;43.114;12.434;2023-05-02T13:20:39;4.85;;;0.43;;
33279;SDS011;20403;43.114;12.434;2023-05-02T13:23:04;0.93;;;0.30;;
33279;SDS011;20403;43.114;12.434;2023-05-02T13:25:30;5.88;;;0.55;;
33279;SDS011;20403;43.114;12.434;2023-05-02T13:27:55;0.75;;;0.43;;
33279;SDS011;20403;43.114;12.434;2023-05-02T13:30:22;1.98;;;0.40;;
33279;SDS011;20403;43.114;12.434;2023-05-02T13:32:47;5.43;;;0.43;;
33279;SDS011;20403;43.114;12.434;2023-05-02T13:35:12;1.13;;;0.32;;
33279;SDS011;20403;43.114;12.434;2023-05-02T13:37:39;0.73;;;0.30;;
33279;SDS011;20403;43.114;12.434;2023-05-02T13:40:05;0.57;;;0.30;;
33279;SDS011;20403;43.114;12.434;2023-05-02T13:42:32;1.98;;;0.20;;
33279;SDS011;20403;43.114;12.434;2023-05-02T13:44:57;1.55;;;0.20;;
33279;SDS011;20403;43.114;12.434;2023-05-02T13:47:22;1.00;;;0.22;;
33279;SDS011;20403;43.114;12.434;2023-05-02T13:49:48;2.42;;;0.28;;
33279;SDS011;20403;43.114;12.434;2023-05-02T13:52:14;3.08;;;0.52;;
33279;SDS011;20403;43.114;12.434;2023-05-02T13:54:40;0.47;;;0.30;;
33279;SDS011;20403;43.114;12.434;2023-05-02T13:57:05;3.63;;;0.20;;
33279;SDS011;20403;43.114;12.434;2023-05-02T13:59:30;2.35;;;0.43;;
33279;SDS011;20403;43.114;12.434;2023-05-02T14:01:56;1.48;;;0.45;;
33279;SDS011;20403;43.114;12.434;2023-05-02T14:04:21;1.55;;;0.30;;
33279;SDS011;20403;43.114;12.434;2023-05-02T14:06:47;2.22;;;0.60;;
33279;SDS011;20403;43.114;12.434;2023-05-02T14:09:12;1.05;;;0.40;;
33279;SDS011;20403;43.114;12.434;2023-05-02T14:11:39;8.27;;;0.52;;
33279;SDS011;20403;43.114;12.434;2023-05-02T14:14:05;1.05;;;0.50;;
33279;SDS011;20403;43.114;12.434;2023-05-02T14:16:30;9.55;;;1.10;;
33279;SDS011;20403;43.114;12.434;2023-05-02T14:18:56;0.30;;;0.30;;
33279;SDS011;20403;43.114;12.434;2023-05-02T14:21:21;3.40;;;0.40;;
33279;SDS011;20403;43.114;12.434;2023-05-02T14:23:47;4.00;;;0.43;;
33279;SDS011;20403;43.114;12.434;2023-05-02T14:26:12;2.85;;;0.47;;
33279;SDS011;20403;43.114;12.434;2023-05-02T14:28:38;1.75;;;0.50;;
33279;SDS011;20403;43.114;12.434;2023-05-02T14:31:03;2.22;;;0.20;;
33279;SDS011;20403;43.114;12.434;2023-05-02T14:33:29;2.97;;;0.43;;
33279;SDS011;20403;43.114;12.434;2023-05-02T14:35:54;3.80;;;0.40;;
33279;SDS011;20403;43.114;12.434;2023-05-02T14:38:20;0.43;;;0.30;;
33279;SDS011;20403;43.114;12.434;2023-05-02T14:40:45;0.47;;;0.28;;
33279;SDS011;20403;43.114;12.434;2023-05-02T14:43:11;0.45;;;0.25;;
33279;SDS011;20403;43.114;12.434;2023-05-02T14:45:36;0.63;;;0.20;;
33279;SDS011;20403;43.114;12.434;2023-05-02T14:48:02;1.33;;;0.20;;
33279;SDS011;20403;43.114;12.434;2023-05-02T14:50:27;0.88;;;0.20;;
33279;SDS011;20403;43.114;12.434;2023-05-02T14:52:53;1.08;;;0.60;;
33279;SDS011;20403;43.114;12.434;2023-05-02T14:55:18;1.27;;;0.20;;
33279;SDS011;20403;43.114;12.434;2023-05-02T14:57:44;2.50;;;0.30;;
33279;SDS011;20403;43.114;12.434;2023-05-02T15:00:09;7.03;;;0.47;;
33279;SDS011;20403;43.114;12.434;2023-05-02T15:02:35;0.98;;;0.30;;
33279;SDS011;20403;43.114;12.434;2023-05-02T15:05:01;2.95;;;0.28;;
33279;SDS011;20403;43.114;12.434;2023-05-02T15:09:57;1.85;;;0.32;;
33279;SDS011;20403;43.114;12.434;2023-05-02T15:12:22;7.32;;;0.40;;
33279;SDS011;20403;43.114;12.434;2023-05-02T15:14:49;1.92;;;0.45;;
33279;SDS011;20403;43.114;12.434;2023-05-02T15:17:15;1.65;;;0.50;;
33279;SDS011;20403;43.114;12.434;2023-05-02T15:19:40;2.65;;;0.30;;
33279;SDS011;20403;43.114;12.434;2023-05-02T15:22:05;3.08;;;1.33;;
33279;SDS011;20403;43.114;12.434;2023-05-02T15:24:31;12.98;;;2.85;;
33279;SDS011;20403;43.114;12.434;2023-05-02T15:26:56;1.60;;;0.68;;
33279;SDS011;20403;43.114;12.434;2023-05-02T15:29:22;4.35;;;0.60;;
33279;SDS011;20403;43.114;12.434;2023-05-02T15:31:47;0.70;;;0.50;;